Terminal Aerodrome Forecast
Issued by NWS

Home | Current Version | Previous Version | Text Only | Print | Product List | Glossary On
Versions: 1 2 3 4 5 6 7 8 9 10 11 12 13 14 15 16 17 18 19 20 21 22 23 24 25 26
000
FTUS43 KLSX 011100
TAFUIN
TAF
KUIN 011129Z 0112/0212 13010KT 1SM -SN BR OVC004
      TEMPO 0112/0115 1/2SM SN FG
     FM011500 04010KT 1/2SM SN OVC004
     FM012000 36015G25KT 2SM -SN BR OVC007
     FM020500 34015G23KT P6SM SCT007 OVC012
     FM020900 33012KT P6SM BKN012=

USA.gov is the U.S. government's official web portal to all federal, state and local government web resources and services.